createdAt,value
2019-02-24T00:01:39.765Z,6.30
2019-02-24T00:04:14.617Z,6.30
2019-02-24T00:06:42.955Z,6.30
2019-02-24T00:09:11.253Z,6.10
2019-02-24T00:11:39.640Z,6.10
2019-02-24T00:14:07.980Z,6.10
2019-02-24T00:16:36.318Z,6.00
2019-02-24T00:19:04.607Z,6.00
2019-02-24T00:21:32.947Z,6.00
2019-02-24T00:24:01.266Z,6.00
2019-02-24T00:26:29.615Z,5.80
2019-02-24T00:28:57.884Z,5.80
2019-02-24T00:31:26.166Z,5.90
2019-02-24T00:33:54.538Z,5.80
2019-02-24T00:36:24.828Z,5.70
2019-02-24T00:38:52.891Z,5.70
2019-02-24T00:41:21.175Z,5.70
2019-02-24T00:43:49.443Z,5.80
2019-02-24T00:46:17.708Z,5.70
2019-02-24T00:48:46.004Z,5.80
2019-02-24T00:51:14.266Z,5.90
2019-02-24T00:53:42.539Z,6.00
2019-02-24T00:56:10.832Z,6.00
2019-02-24T00:58:39.093Z,6.20
2019-02-24T01:01:07.365Z,6.30
2019-02-24T01:03:35.651Z,6.50
2019-02-24T01:06:04.267Z,6.50
2019-02-24T01:08:32.728Z,6.50
2019-02-24T01:11:01.191Z,6.50
2019-02-24T01:13:29.632Z,6.50
2019-02-24T01:15:58.071Z,6.50
2019-02-24T01:18:26.546Z,6.60
2019-02-24T01:20:54.992Z,6.60
2019-02-24T01:23:23.519Z,6.70
2019-02-24T01:25:51.995Z,6.60
2019-02-24T01:28:25.331Z,6.60
2019-02-24T01:30:50.614Z,6.50
2019-02-24T01:33:19.092Z,6.30
2019-02-24T01:35:47.531Z,6.40
2019-02-24T01:38:15.973Z,6.60
2019-02-24T01:40:44.436Z,6.60
2019-02-24T01:43:13.012Z,6.60
2019-02-24T01:45:41.453Z,6.60
2019-02-24T01:48:09.919Z,6.50
2019-02-24T01:50:38.363Z,6.50
2019-02-24T01:53:06.807Z,6.50
2019-02-24T01:55:35.279Z,6.50
2019-02-24T01:58:03.720Z,6.50
2019-02-24T02:00:32.176Z,6.40
2019-02-24T02:03:00.657Z,6.30
2019-02-24T02:05:29.151Z,6.20
2019-02-24T02:07:57.587Z,6.20
2019-02-24T02:10:26.055Z,6.20
2019-02-24T02:12:54.495Z,6.10
2019-02-24T02:15:22.976Z,6.00
2019-02-24T02:17:51.441Z,5.90
2019-02-24T02:20:19.880Z,5.90
2019-02-24T02:22:48.320Z,5.90
2019-02-24T02:25:16.799Z,5.80
2019-02-24T02:27:45.252Z,5.80
2019-02-24T02:30:13.770Z,5.80
2019-02-24T02:32:42.791Z,5.80
2019-02-24T02:35:11.311Z,5.60
2019-02-24T02:37:39.756Z,5.60
2019-02-24T02:40:08.971Z,5.60
2019-02-24T02:42:37.471Z,5.60
2019-02-24T02:45:08.060Z,5.50
2019-02-24T02:47:36.532Z,5.50
2019-02-24T02:50:06.017Z,5.50
2019-02-24T02:52:34.517Z,5.60
2019-02-24T02:55:03.125Z,5.60
2019-02-24T02:57:31.563Z,5.50
2019-02-24T03:00:00.012Z,5.40
2019-02-24T03:02:28.672Z,5.40
2019-02-24T03:04:57.165Z,5.50
2019-02-24T03:07:36.004Z,5.40
2019-02-24T03:10:05.085Z,5.40
2019-02-24T03:12:33.524Z,5.30
2019-02-24T03:15:02.005Z,5.30
2019-02-24T03:17:30.455Z,5.20
2019-02-24T03:19:58.976Z,5.10
2019-02-24T03:22:27.453Z,5.10
2019-02-24T03:24:55.941Z,5.10
2019-02-24T03:27:30.345Z,5.10
2019-02-24T03:29:58.827Z,5.10
2019-02-24T03:32:27.279Z,5.10
2019-02-24T03:34:55.716Z,5.10
2019-02-24T03:37:24.192Z,5.00
2019-02-24T03:39:52.630Z,4.90
2019-02-24T03:42:21.257Z,4.90
2019-02-24T03:44:49.724Z,4.90
2019-02-24T03:47:18.167Z,4.80
2019-02-24T03:49:46.617Z,4.80
2019-02-24T03:52:15.160Z,4.70
2019-02-24T03:54:43.608Z,4.70
2019-02-24T03:57:12.424Z,4.60
2019-02-24T03:59:41.024Z,4.60
2019-02-24T04:02:09.492Z,4.70
2019-02-24T04:04:38.041Z,4.60
2019-02-24T04:07:08.820Z,4.60
2019-02-24T04:09:37.327Z,4.60
2019-02-24T04:12:05.776Z,4.70
2019-02-24T04:14:34.251Z,4.70
2019-02-24T04:17:02.697Z,4.70
2019-02-24T04:19:31.149Z,4.80
2019-02-24T04:21:59.627Z,4.80
2019-02-24T04:24:28.076Z,4.80
2019-02-24T04:26:56.519Z,4.70
2019-02-24T04:29:25.410Z,4.70
2019-02-24T04:31:54.011Z,4.60
2019-02-24T04:34:22.464Z,4.60
2019-02-24T04:36:51.021Z,4.60
2019-02-24T04:39:19.483Z,4.60
2019-02-24T04:41:48.113Z,4.60
2019-02-24T04:44:16.596Z,4.60
2019-02-24T04:46:45.049Z,4.60
2019-02-24T04:49:13.516Z,4.50
2019-02-24T04:51:42.006Z,4.40
2019-02-24T04:54:10.452Z,4.40
2019-02-24T04:56:38.899Z,4.40
2019-02-24T04:59:08.750Z,4.30
2019-02-24T05:01:37.288Z,4.30
2019-02-24T05:04:05.728Z,4.40
2019-02-24T05:06:34.200Z,4.40
2019-02-24T05:09:04.008Z,4.40
2019-02-24T05:11:32.457Z,4.40
2019-02-24T05:14:00.961Z,4.30
2019-02-24T05:16:29.520Z,4.30
2019-02-24T05:18:57.969Z,4.30
2019-02-24T05:21:26.435Z,4.30
2019-02-24T05:23:54.968Z,4.30
2019-02-24T05:26:23.413Z,4.20
2019-02-24T05:28:51.880Z,4.20
2019-02-24T05:31:20.320Z,4.20
2019-02-24T05:33:48.779Z,4.20
2019-02-24T05:36:17.256Z,4.30
2019-02-24T05:38:45.702Z,4.30
2019-02-24T05:41:14.148Z,4.40
2019-02-24T05:43:42.629Z,4.30
2019-02-24T05:46:11.070Z,4.30
2019-02-24T05:48:39.556Z,4.30
2019-02-24T05:51:08.061Z,4.10
2019-02-24T05:53:36.512Z,4.10
2019-02-24T05:56:04.960Z,4.10
2019-02-24T05:58:33.432Z,4.00
2019-02-24T06:01:01.892Z,3.90
2019-02-24T06:03:30.350Z,3.90
2019-02-24T06:05:58.812Z,3.80
2019-02-24T06:08:27.252Z,3.80
2019-02-24T06:10:55.775Z,3.80
2019-02-24T06:13:24.247Z,3.90
2019-02-24T06:15:52.685Z,3.80
2019-02-24T06:18:21.142Z,3.70
2019-02-24T06:20:49.604Z,3.60
2019-02-24T06:23:18.052Z,3.60
2019-02-24T06:25:46.497Z,3.50
2019-02-24T06:28:15.021Z,3.50
2019-02-24T06:30:43.455Z,3.30
2019-02-24T06:33:12.234Z,3.20
2019-02-24T06:35:40.708Z,3.30
2019-02-24T06:38:09.232Z,3.30
2019-02-24T06:40:37.678Z,3.30
2019-02-24T06:43:06.158Z,3.20
2019-02-24T06:45:34.602Z,3.20
2019-02-24T06:48:03.049Z,3.20
2019-02-24T06:50:35.654Z,3.10
2019-02-24T06:53:03.316Z,3.10
2019-02-24T06:55:31.756Z,3.20
2019-02-24T06:58:00.219Z,3.00
2019-02-24T07:00:28.656Z,3.00
2019-02-24T07:02:57.095Z,3.10
2019-02-24T07:05:25.588Z,3.10
2019-02-24T07:07:54.040Z,3.00
2019-02-24T07:10:22.624Z,3.00
2019-02-24T07:12:51.080Z,3.00
2019-02-24T07:15:19.604Z,3.00
2019-02-24T07:17:48.049Z,3.00
2019-02-24T07:20:16.515Z,3.00
2019-02-24T07:22:44.956Z,3.00
2019-02-24T07:25:13.398Z,3.00
2019-02-24T07:27:41.970Z,2.90
2019-02-24T07:30:10.602Z,3.00
2019-02-24T07:32:39.059Z,3.00
2019-02-24T07:35:07.741Z,2.90
2019-02-24T07:37:36.194Z,2.90
2019-02-24T07:40:05.482Z,3.00
2019-02-24T07:42:33.992Z,3.00
2019-02-24T07:45:02.432Z,3.00
2019-02-24T07:47:30.933Z,3.10
2019-02-24T07:49:59.403Z,3.10
2019-02-24T07:52:27.864Z,3.30
2019-02-24T07:54:56.299Z,3.40
2019-02-24T07:57:24.787Z,3.50
2019-02-24T07:59:53.231Z,3.60
2019-02-24T08:02:21.678Z,3.70
2019-02-24T08:04:50.159Z,3.80
2019-02-24T08:07:18.616Z,4.00
2019-02-24T08:09:47.141Z,4.30
2019-02-24T08:12:15.621Z,4.40
2019-02-24T08:14:44.072Z,4.60
2019-02-24T08:17:12.516Z,4.60
2019-02-24T08:19:40.984Z,4.80
2019-02-24T08:22:09.446Z,4.90
2019-02-24T08:24:37.964Z,5.00
2019-02-24T08:27:06.434Z,5.10
2019-02-24T08:29:34.889Z,5.30
2019-02-24T08:32:03.339Z,5.40
2019-02-24T08:34:31.811Z,5.50
2019-02-24T08:37:00.256Z,5.60
2019-02-24T08:39:28.704Z,5.70
2019-02-24T08:41:57.197Z,5.80
2019-02-24T08:44:25.722Z,5.90
2019-02-24T08:46:54.180Z,6.00
2019-02-24T08:49:22.678Z,6.10
2019-02-24T08:51:51.121Z,6.20
2019-02-24T08:54:19.564Z,6.30
2019-02-24T08:56:48.056Z,6.40
2019-02-24T08:59:16.635Z,6.40
2019-02-24T09:01:45.149Z,6.50
2019-02-24T09:04:13.633Z,6.60
2019-02-24T09:06:42.151Z,6.80
2019-02-24T09:09:10.597Z,7.00
2019-02-24T09:11:39.077Z,7.10
2019-02-24T09:14:07.560Z,7.30
2019-02-24T09:16:36.008Z,7.40
2019-02-24T09:19:04.551Z,7.70
2019-02-24T09:21:33.006Z,7.80
2019-02-24T09:24:01.463Z,8.00
2019-02-24T09:26:30.175Z,8.10
2019-02-24T09:28:58.714Z,8.20
2019-02-24T09:31:27.295Z,8.30
2019-02-24T09:33:56.743Z,8.30
2019-02-24T09:36:25.196Z,8.30
2019-02-24T09:38:53.636Z,8.40
2019-02-24T09:41:22.106Z,8.40
2019-02-24T09:43:50.550Z,8.60
2019-02-24T09:46:18.989Z,8.80
2019-02-24T09:48:47.533Z,9.00
2019-02-24T09:51:15.981Z,9.20
2019-02-24T09:53:44.436Z,9.60
2019-02-24T09:56:32.231Z,9.80
2019-02-24T09:59:00.748Z,9.80
2019-02-24T10:01:29.203Z,9.80
2019-02-24T10:03:57.707Z,10.00
2019-02-24T10:06:26.231Z,10.10
2019-02-24T10:08:54.690Z,10.40
2019-02-24T10:11:23.332Z,10.40
2019-02-24T10:13:51.897Z,10.60
2019-02-24T10:16:20.344Z,11.00
2019-02-24T10:18:48.834Z,11.40
2019-02-24T10:21:17.286Z,11.30
2019-02-24T10:23:45.738Z,12.00
2019-02-24T10:26:14.223Z,12.70
2019-02-24T10:28:42.686Z,12.10
2019-02-24T10:31:19.655Z,11.80
2019-02-24T10:33:41.517Z,11.90
2019-02-24T10:36:09.966Z,11.80
2019-02-24T10:38:38.520Z,11.90
2019-02-24T10:41:07.065Z,12.40
2019-02-24T10:43:35.512Z,12.50
2019-02-24T10:46:03.964Z,12.20
2019-02-24T10:48:32.612Z,12.60
2019-02-24T10:51:01.056Z,14.00
2019-02-24T10:53:29.517Z,13.40
2019-02-24T10:55:57.983Z,13.10
2019-02-24T10:58:34.473Z,13.00
2019-02-24T11:00:56.611Z,13.00
2019-02-24T11:03:25.075Z,12.80
2019-02-24T11:05:53.521Z,13.00
2019-02-24T11:08:22.999Z,13.10
2019-02-24T11:10:51.488Z,13.20
2019-02-24T11:13:19.979Z,13.10
2019-02-24T11:15:48.434Z,13.30
2019-02-24T11:18:16.960Z,13.80
2019-02-24T11:20:45.403Z,14.50
2019-02-24T11:23:13.859Z,15.10
2019-02-24T11:25:42.508Z,15.80
2019-02-24T11:28:11.027Z,16.50
2019-02-24T11:30:39.553Z,17.20
2019-02-24T11:33:08.025Z,16.60
2019-02-24T11:35:36.483Z,16.10
2019-02-24T11:38:04.996Z,16.00
2019-02-24T11:40:33.471Z,16.50
2019-02-24T11:43:01.931Z,17.00
2019-02-24T11:45:30.413Z,16.90
2019-02-24T11:47:59.043Z,16.90
2019-02-24T11:50:27.499Z,16.60
2019-02-24T11:52:55.943Z,16.30
2019-02-24T11:55:24.417Z,16.30
2019-02-24T11:57:52.864Z,16.80
2019-02-24T12:00:21.325Z,17.20
2019-02-24T12:02:49.791Z,17.10
2019-02-24T12:05:18.244Z,17.70
2019-02-24T12:07:46.685Z,18.00
2019-02-24T12:10:15.152Z,17.70
2019-02-24T12:12:43.607Z,18.40
2019-02-24T12:15:13.295Z,19.30
2019-02-24T12:17:41.773Z,18.60
2019-02-24T12:20:13.287Z,17.90
2019-02-24T12:22:41.744Z,18.20
2019-02-24T12:25:11.361Z,17.80
2019-02-24T12:27:39.804Z,17.50
2019-02-24T12:30:10.898Z,17.00
2019-02-24T12:32:39.486Z,16.70
2019-02-24T12:35:08.151Z,16.00
2019-02-24T12:37:36.661Z,15.30
2019-02-24T12:40:25.998Z,14.90
2019-02-24T12:42:54.617Z,14.80
2019-02-24T12:45:23.256Z,14.70
2019-02-24T12:47:51.908Z,14.70
2019-02-24T12:50:20.456Z,14.70
2019-02-24T12:52:48.905Z,14.70
2019-02-24T12:55:17.488Z,14.60
2019-02-24T12:57:46.008Z,14.60
2019-02-24T13:00:23.216Z,14.60
2019-02-24T13:03:11.026Z,14.40
2019-02-24T13:05:39.641Z,14.60
2019-02-24T13:08:08.097Z,14.50
2019-02-24T13:10:36.628Z,14.20
2019-02-24T13:13:05.178Z,14.20
2019-02-24T13:15:33.632Z,14.10
2019-02-24T13:18:02.163Z,14.20
2019-02-24T13:20:30.724Z,14.20
2019-02-24T13:22:59.265Z,14.30
2019-02-24T13:25:27.772Z,14.20
2019-02-24T13:27:56.253Z,14.20
2019-02-24T13:30:24.768Z,14.20
2019-02-24T13:32:53.328Z,14.20
2019-02-24T13:35:21.881Z,14.10
2019-02-24T13:37:50.408Z,14.10
2019-02-24T13:40:19.003Z,14.00
2019-02-24T13:42:47.607Z,13.90
2019-02-24T13:45:17.918Z,14.00
2019-02-24T13:47:46.441Z,14.00
2019-02-24T13:50:16.132Z,14.10
2019-02-24T13:53:04.016Z,14.00
2019-02-24T13:55:32.492Z,14.10
2019-02-24T13:58:01.012Z,14.00
2019-02-24T14:00:29.476Z,13.90
2019-02-24T14:02:57.957Z,13.90
2019-02-24T14:05:26.416Z,13.90
2019-02-24T14:07:54.858Z,14.00
2019-02-24T14:10:23.496Z,13.90
2019-02-24T14:12:51.947Z,14.00
2019-02-24T14:15:20.479Z,13.90
2019-02-24T14:17:49.092Z,14.00
2019-02-24T14:20:18.080Z,14.00
2019-02-24T14:22:46.603Z,14.00
2019-02-24T14:25:16.031Z,13.90
2019-02-24T14:27:44.744Z,14.00
2019-02-24T14:30:15.895Z,14.00
2019-02-24T14:32:44.701Z,14.00
2019-02-24T14:35:18.352Z,13.90
2019-02-24T14:37:46.955Z,13.90
2019-02-24T14:40:15.512Z,13.90
2019-02-24T14:42:43.956Z,13.90
2019-02-24T14:45:25.667Z,14.00
2019-02-24T14:47:54.189Z,14.00
2019-02-24T14:50:22.743Z,13.90
2019-02-24T14:52:51.261Z,14.10
2019-02-24T14:55:19.736Z,14.00
2019-02-24T14:57:48.199Z,13.90
2019-02-24T15:00:19.770Z,14.00
2019-02-24T15:02:48.218Z,14.00
2019-02-24T15:05:17.054Z,13.90
2019-02-24T15:07:45.719Z,13.90
2019-02-24T15:10:21.642Z,13.90
2019-02-24T15:12:50.130Z,13.80
2019-02-24T15:15:20.992Z,13.80
2019-02-24T15:17:49.451Z,13.80
2019-02-24T15:20:19.971Z,13.80
2019-02-24T15:22:48.492Z,13.80
2019-02-24T15:25:18.105Z,13.80
2019-02-24T15:27:48.156Z,13.80
2019-02-24T15:30:19.951Z,13.80
2019-02-24T15:32:51.768Z,13.80
2019-02-24T15:35:18.739Z,13.80
2019-02-24T15:37:47.180Z,13.70
2019-02-24T15:40:15.633Z,13.80
2019-02-24T15:42:44.111Z,13.80
2019-02-24T15:45:12.736Z,13.80
2019-02-24T15:47:41.206Z,13.80
2019-02-24T15:50:12.114Z,13.70
2019-02-24T15:52:40.560Z,13.70
2019-02-24T15:55:11.721Z,13.70
2019-02-24T15:57:40.277Z,13.70
2019-02-24T16:00:11.908Z,13.70
2019-02-24T16:02:40.370Z,13.70
2019-02-24T16:05:10.683Z,13.70
2019-02-24T16:07:39.209Z,13.80
2019-02-24T16:10:10.732Z,13.80
2019-02-24T16:12:39.387Z,13.70
2019-02-24T16:15:15.777Z,13.70
2019-02-24T16:17:44.252Z,13.60
2019-02-24T16:20:33.565Z,13.50
2019-02-24T16:23:02.036Z,13.40
2019-02-24T16:25:30.503Z,13.30
2019-02-24T16:27:59.024Z,13.20
2019-02-24T16:30:27.500Z,13.10
2019-02-24T16:32:55.965Z,13.10
2019-02-24T16:35:24.399Z,13.00
2019-02-24T16:37:52.976Z,12.80
2019-02-24T16:40:26.251Z,12.80
2019-02-24T16:42:54.702Z,12.60
2019-02-24T16:45:23.345Z,12.50
2019-02-24T16:48:11.140Z,12.40
2019-02-24T16:50:41.921Z,12.40
2019-02-24T16:53:10.373Z,12.30
2019-02-24T16:55:38.907Z,12.20
2019-02-24T16:58:07.395Z,12.10
2019-02-24T17:00:36.028Z,12.00
2019-02-24T17:03:04.708Z,11.80
2019-02-24T17:05:33.410Z,11.70
2019-02-24T17:08:01.870Z,11.50
2019-02-24T17:10:30.382Z,11.40
2019-02-24T17:12:58.875Z,11.30
2019-02-24T17:15:27.320Z,11.10
2019-02-24T17:17:55.780Z,11.00
2019-02-24T17:20:26.496Z,10.90
2019-02-24T17:22:55.024Z,10.80
2019-02-24T17:25:23.559Z,10.70
2019-02-24T17:27:52.095Z,10.60
2019-02-24T17:30:20.662Z,10.50
2019-02-24T17:32:49.138Z,10.40
2019-02-24T17:35:17.683Z,10.30
2019-02-24T17:37:46.204Z,10.20
2019-02-24T17:40:35.540Z,10.10
2019-02-24T17:43:04.054Z,10.10
2019-02-24T17:45:32.515Z,9.90
2019-02-24T17:48:01.059Z,9.80
2019-02-24T17:50:29.526Z,9.70
2019-02-24T17:53:00.305Z,9.60
2019-02-24T17:55:28.773Z,9.60
2019-02-24T17:57:57.215Z,9.50
2019-02-24T18:00:34.000Z,9.40
2019-02-24T18:03:02.451Z,9.40
2019-02-24T18:05:31.094Z,9.20
2019-02-24T18:07:59.780Z,9.20
2019-02-24T18:10:28.360Z,9.10
2019-02-24T18:12:56.812Z,9.00
2019-02-24T18:15:25.284Z,8.90
2019-02-24T18:17:53.739Z,8.80
2019-02-24T18:20:22.652Z,8.70
2019-02-24T18:22:51.182Z,8.60
2019-02-24T18:25:19.702Z,8.60
2019-02-24T18:27:48.153Z,8.40
2019-02-24T18:30:27.639Z,8.30
2019-02-24T18:32:56.143Z,8.30
2019-02-24T18:35:24.770Z,8.30
2019-02-24T18:38:02.274Z,8.20
2019-02-24T18:40:30.723Z,8.10
2019-02-24T18:43:00.500Z,8.10
2019-02-24T18:45:29.803Z,8.00
2019-02-24T18:47:58.309Z,7.90
2019-02-24T18:50:26.826Z,7.80
2019-02-24T18:52:55.284Z,7.80
2019-02-24T18:55:23.735Z,7.70
2019-02-24T18:57:52.253Z,7.60
2019-02-24T19:00:24.427Z,7.60
2019-02-24T19:02:54.880Z,7.50
2019-02-24T19:05:23.108Z,7.40
2019-02-24T19:07:51.701Z,7.40
2019-02-24T19:10:42.620Z,7.30
2019-02-24T19:13:11.085Z,7.30
2019-02-24T19:15:39.523Z,7.20
2019-02-24T19:18:07.964Z,7.20
2019-02-24T19:20:36.450Z,7.20
2019-02-24T19:23:04.996Z,7.00
2019-02-24T19:25:33.439Z,7.00
2019-02-24T19:28:01.924Z,6.90
2019-02-24T19:30:30.363Z,6.90
2019-02-24T19:32:58.816Z,6.80
2019-02-24T19:35:27.307Z,6.80
2019-02-24T19:37:55.762Z,6.60
2019-02-24T19:40:24.359Z,6.60
2019-02-24T19:42:52.831Z,6.60
2019-02-24T19:45:23.031Z,6.50
2019-02-24T19:47:51.570Z,6.50
2019-02-24T19:50:20.196Z,6.40
2019-02-24T19:52:48.725Z,6.30
2019-02-24T19:55:18.017Z,6.30
2019-02-24T19:58:07.468Z,6.30
2019-02-24T20:00:55.320Z,6.20
2019-02-24T20:03:23.809Z,6.20
2019-02-24T20:05:52.264Z,6.10
2019-02-24T20:08:20.712Z,6.10
2019-02-24T20:10:49.176Z,6.10
2019-02-24T20:13:17.629Z,6.00
2019-02-24T20:15:46.095Z,6.00
2019-02-24T20:18:14.744Z,5.90
2019-02-24T20:20:43.268Z,5.90
2019-02-24T20:23:11.716Z,5.90
2019-02-24T20:25:40.196Z,5.90
2019-02-24T20:28:08.643Z,5.80
2019-02-24T20:30:37.487Z,5.70
2019-02-24T20:33:06.144Z,5.80
2019-02-24T20:35:34.593Z,5.80
2019-02-24T20:38:03.044Z,5.80
2019-02-24T20:40:31.531Z,5.70
2019-02-24T20:42:59.984Z,5.60
2019-02-24T20:45:29.365Z,5.70
2019-02-24T20:47:58.340Z,5.60
2019-02-24T20:50:48.372Z,5.60
2019-02-24T20:53:16.920Z,5.50
2019-02-24T20:55:45.436Z,5.50
2019-02-24T20:58:13.896Z,5.50
2019-02-24T21:01:01.867Z,5.50
2019-02-24T21:03:30.308Z,5.40
2019-02-24T21:05:58.748Z,5.30
2019-02-24T21:08:27.228Z,5.30
2019-02-24T21:10:55.745Z,5.30
2019-02-24T21:13:24.195Z,5.30
2019-02-24T21:15:52.677Z,5.30
2019-02-24T21:18:21.209Z,5.20
2019-02-24T21:20:49.741Z,5.20
2019-02-24T21:23:18.224Z,5.20
2019-02-24T21:25:46.675Z,5.20
2019-02-24T21:28:15.112Z,5.20
2019-02-24T21:30:43.577Z,5.10
2019-02-24T21:33:12.032Z,5.10
2019-02-24T21:35:40.492Z,5.10
2019-02-24T21:38:09.035Z,5.10
2019-02-24T21:40:37.550Z,5.10
2019-02-24T21:43:06.121Z,5.00
2019-02-24T21:45:34.660Z,4.90
2019-02-24T21:48:03.198Z,4.90
2019-02-24T21:50:31.792Z,4.80
2019-02-24T21:53:00.335Z,4.80
2019-02-24T21:55:28.776Z,4.80
2019-02-24T21:57:57.229Z,4.80
2019-02-24T22:00:46.560Z,4.80
2019-02-24T22:03:15.160Z,4.80
2019-02-24T22:05:43.619Z,4.80
2019-02-24T22:08:12.176Z,4.70
2019-02-24T22:10:40.687Z,4.70
2019-02-24T22:13:09.138Z,4.60
2019-02-24T22:15:37.715Z,4.60
2019-02-24T22:18:06.228Z,4.60
2019-02-24T22:20:34.678Z,4.60
2019-02-24T22:23:03.259Z,4.60
2019-02-24T22:25:31.700Z,4.60
2019-02-24T22:28:00.373Z,4.60
2019-02-24T22:30:28.921Z,4.50
2019-02-24T22:33:16.728Z,4.50
2019-02-24T22:35:45.336Z,4.50
2019-02-24T22:38:13.805Z,4.50
2019-02-24T22:40:42.318Z,4.50
2019-02-24T22:43:10.875Z,4.40
2019-02-24T22:45:39.321Z,4.30
2019-02-24T22:48:07.839Z,4.10
2019-02-24T22:50:36.437Z,4.10
2019-02-24T22:53:04.892Z,4.00
2019-02-24T22:55:33.338Z,4.00
2019-02-24T22:58:01.880Z,4.00
2019-02-24T23:00:54.793Z,4.10
2019-02-24T23:03:26.411Z,4.10
2019-02-24T23:05:55.000Z,4.10
2019-02-24T23:08:23.462Z,4.00
2019-02-24T23:10:52.053Z,4.10
2019-02-24T23:13:20.637Z,4.00
2019-02-24T23:15:49.316Z,3.90
2019-02-24T23:18:17.779Z,4.00
2019-02-24T23:20:46.235Z,4.00
2019-02-24T23:23:14.682Z,4.20
2019-02-24T23:25:43.224Z,4.30
2019-02-24T23:28:11.804Z,4.40
2019-02-24T23:30:40.251Z,4.40
2019-02-24T23:33:08.783Z,4.40
2019-02-24T23:35:37.252Z,4.30
2019-02-24T23:38:05.792Z,4.30
2019-02-24T23:40:34.381Z,4.30
2019-02-24T23:43:02.819Z,4.30
2019-02-24T23:45:31.388Z,4.40
2019-02-24T23:47:59.927Z,4.50
2019-02-24T23:50:28.367Z,4.50
2019-02-24T23:52:56.812Z,4.40
2019-02-24T23:55:25.288Z,4.40
2019-02-24T23:57:53.734Z,4.40
